sensor_id;sensor_type;location;lat;lon;timestamp;pressure;altitude;pressure_sealevel;temperature;humidity
43757;BME280;73222;41.866;12.462;2024-02-26T00:01:54;100432.28;;;9.04;100.00
43757;BME280;73222;41.866;12.462;2024-02-26T00:04:20;100424.56;;;9.09;100.00
43757;BME280;73222;41.866;12.462;2024-02-26T00:06:46;100428.00;;;9.08;100.00
43757;BME280;73222;41.866;12.462;2024-02-26T00:09:13;100428.00;;;9.08;100.00
43757;BME280;73222;41.866;12.462;2024-02-26T00:11:38;100426.31;;;9.10;100.00
43757;BME280;73222;41.866;12.462;2024-02-26T00:14:04;100426.25;;;9.04;100.00
43757;BME280;73222;41.866;12.462;2024-02-26T00:16:30;100426.28;;;9.09;100.00
43757;BME280;73222;41.866;12.462;2024-02-26T00:18:55;100417.66;;;9.02;100.00
43757;BME280;73222;41.866;12.462;2024-02-26T00:21:20;100419.38;;;9.06;100.00
43757;BME280;73222;41.866;12.462;2024-02-26T00:23:46;100411.63;;;9.03;100.00
43757;BME280;73222;41.866;12.462;2024-02-26T00:26:12;100417.56;;;8.92;100.00
43757;BME280;73222;41.866;12.462;2024-02-26T00:28:37;100415.84;;;8.91;100.00
43757;BME280;73222;41.866;12.462;2024-02-26T00:31:03;100415.00;;;8.97;100.00
43757;BME280;73222;41.866;12.462;2024-02-26T00:33:28;100413.31;;;8.99;100.00
43757;BME280;73222;41.866;12.462;2024-02-26T00:35:54;100410.72;;;9.01;100.00
43757;BME280;73222;41.866;12.462;2024-02-26T00:38:19;100410.69;;;8.93;100.00
43757;BME280;73222;41.866;12.462;2024-02-26T00:40:45;100409.84;;;8.94;100.00
43757;BME280;73222;41.866;12.462;2024-02-26T00:43:11;100406.34;;;8.87;100.00
43757;BME280;73222;41.866;12.462;2024-02-26T00:45:36;100408.00;;;8.80;100.00
43757;BME280;73222;41.866;12.462;2024-02-26T00:48:01;100406.34;;;8.86;100.00
43757;BME280;73222;41.866;12.462;2024-02-26T00:50:31;100405.44;;;8.79;100.00
43757;BME280;73222;41.866;12.462;2024-02-26T00:52:56;100407.16;;;8.80;100.00
43757;BME280;73222;41.866;12.462;2024-02-26T00:55:22;100407.09;;;8.71;100.00
43757;BME280;73222;41.866;12.462;2024-02-26T00:57:47;100401.94;;;8.74;100.00
43757;BME280;73222;41.866;12.462;2024-02-26T01:00:13;100398.41;;;8.62;100.00
43757;BME280;73222;41.866;12.462;2024-02-26T01:02:39;100401.88;;;8.64;100.00
43757;BME280;73222;41.866;12.462;2024-02-26T01:05:05;100401.81;;;8.58;100.00
43757;BME280;73222;41.866;12.462;2024-02-26T01:07:31;100404.38;;;8.58;100.00
43757;BME280;73222;41.866;12.462;2024-02-26T01:10:04;100404.44;;;8.64;100.00
43757;BME280;73222;41.866;12.462;2024-02-26T01:12:30;100399.22;;;8.57;100.00
43757;BME280;73222;41.866;12.462;2024-02-26T01:14:56;100401.75;;;8.52;100.00
43757;BME280;73222;41.866;12.462;2024-02-26T01:17:21;100401.69;;;8.49;100.00
43757;BME280;73222;41.866;12.462;2024-02-26T01:19:47;100410.28;;;8.48;100.00
43757;BME280;73222;41.866;12.462;2024-02-26T01:22:12;100418.84;;;8.44;100.00
43757;BME280;73222;41.866;12.462;2024-02-26T01:24:37;100414.47;;;8.36;100.00
43757;BME280;73222;41.866;12.462;2024-02-26T01:27:03;100420.53;;;8.38;100.00
43757;BME280;73222;41.866;12.462;2024-02-26T01:29:29;100411.03;;;8.36;100.00
43757;BME280;73222;41.866;12.462;2024-02-26T01:31:54;100413.69;;;8.44;100.00
43757;BME280;73222;41.866;12.462;2024-02-26T01:34:20;100408.34;;;8.25;100.00
43757;BME280;73222;41.866;12.462;2024-02-26T01:36:45;100408.34;;;8.22;100.00
43757;BME280;73222;41.866;12.462;2024-02-26T01:39:11;100403.19;;;8.25;100.00
43757;BME280;73222;41.866;12.462;2024-02-26T01:41:38;100398.84;;;8.21;100.00
43757;BME280;73222;41.866;12.462;2024-02-26T01:44:04;100391.06;;;8.15;100.00
43757;BME280;73222;41.866;12.462;2024-02-26T01:46:29;100397.88;;;8.09;100.00
43757;BME280;73222;41.866;12.462;2024-02-26T01:48:56;100390.06;;;8.03;100.00
43757;BME280;73222;41.866;12.462;2024-02-26T01:51:22;100400.41;;;8.05;100.00
43757;BME280;73222;41.866;12.462;2024-02-26T01:53:47;100403.78;;;8.01;100.00
43757;BME280;73222;41.866;12.462;2024-02-26T01:56:14;100399.44;;;7.95;100.00
43757;BME280;73222;41.866;12.462;2024-02-26T01:58:41;100399.44;;;7.93;100.00
43757;BME280;73222;41.866;12.462;2024-02-26T02:01:07;100399.38;;;7.90;100.00
43757;BME280;73222;41.866;12.462;2024-02-26T02:03:33;100395.00;;;7.81;100.00
43757;BME280;73222;41.866;12.462;2024-02-26T02:05:59;100392.38;;;7.78;100.00
43757;BME280;73222;41.866;12.462;2024-02-26T02:08:24;100394.06;;;7.75;100.00
43757;BME280;73222;41.866;12.462;2024-02-26T02:10:50;100392.31;;;7.72;100.00
43757;BME280;73222;41.866;12.462;2024-02-26T02:13:16;100396.56;;;7.67;100.00
43757;BME280;73222;41.866;12.462;2024-02-26T02:15:41;100400.00;;;7.69;100.00
43757;BME280;73222;41.866;12.462;2024-02-26T02:18:07;100393.91;;;7.62;100.00
43757;BME280;73222;41.866;12.462;2024-02-26T02:20:33;100400.66;;;7.52;100.00
43757;BME280;73222;41.866;12.462;2024-02-26T02:22:59;100410.16;;;7.55;100.00
43757;BME280;73222;41.866;12.462;2024-02-26T02:25:24;100407.53;;;7.53;100.00
43757;BME280;73222;41.866;12.462;2024-02-26T02:27:50;100405.81;;;7.52;100.00
43757;BME280;73222;41.866;12.462;2024-02-26T02:30:17;100398.03;;;7.48;100.00
43757;BME280;73222;41.866;12.462;2024-02-26T02:32:43;100392.91;;;7.49;100.00
43757;BME280;73222;41.866;12.462;2024-02-26T02:35:08;100392.88;;;7.48;100.00
43757;BME280;73222;41.866;12.462;2024-02-26T02:37:34;100387.66;;;7.43;100.00
43757;BME280;73222;41.866;12.462;2024-02-26T02:39:59;100383.41;;;7.48;100.00
43757;BME280;73222;41.866;12.462;2024-02-26T02:42:26;100392.00;;;7.47;100.00
43757;BME280;73222;41.866;12.462;2024-02-26T02:44:51;100393.66;;;7.42;100.00
43757;BME280;73222;41.866;12.462;2024-02-26T02:47:16;100394.44;;;7.36;100.00
43757;BME280;73222;41.866;12.462;2024-02-26T02:49:42;100397.03;;;7.38;100.00
43757;BME280;73222;41.866;12.462;2024-02-26T02:52:07;100403.88;;;7.36;100.00
43757;BME280;73222;41.866;12.462;2024-02-26T02:54:32;100399.41;;;7.22;100.00
43757;BME280;73222;41.866;12.462;2024-02-26T02:56:58;100400.25;;;7.21;100.00
43757;BME280;73222;41.866;12.462;2024-02-26T02:59:23;100397.59;;;7.17;100.00
43757;BME280;73222;41.866;12.462;2024-02-26T03:01:49;100398.47;;;7.17;100.00
43757;BME280;73222;41.866;12.462;2024-02-26T03:04:14;100414.72;;;7.13;100.00
43757;BME280;73222;41.866;12.462;2024-02-26T03:06:39;100415.56;;;7.12;100.00
43757;BME280;73222;41.866;12.462;2024-02-26T03:09:05;100416.41;;;7.11;100.00
43757;BME280;73222;41.866;12.462;2024-02-26T03:11:30;100416.34;;;7.06;100.00
43757;BME280;73222;41.866;12.462;2024-02-26T03:13:56;100417.25;;;7.10;100.00
43757;BME280;73222;41.866;12.462;2024-02-26T03:16:21;100406.84;;;7.04;100.00
43757;BME280;73222;41.866;12.462;2024-02-26T03:18:46;100401.69;;;7.00;100.00
43757;BME280;73222;41.866;12.462;2024-02-26T03:21:12;100404.31;;;7.05;100.00
43757;BME280;73222;41.866;12.462;2024-02-26T03:23:37;100405.06;;;6.99;100.00
43757;BME280;73222;41.866;12.462;2024-02-26T03:26:05;100405.03;;;6.96;100.00
43757;BME280;73222;41.866;12.462;2024-02-26T03:28:31;100397.28;;;6.95;100.00
43757;BME280;73222;41.866;12.462;2024-02-26T03:30:59;100393.00;;;6.95;100.00
43757;BME280;73222;41.866;12.462;2024-02-26T03:33:24;100387.78;;;6.92;100.00
43757;BME280;73222;41.866;12.462;2024-02-26T03:35:49;100385.16;;;6.87;100.00
43757;BME280;73222;41.866;12.462;2024-02-26T03:38:15;100379.09;;;6.84;100.00
43757;BME280;73222;41.866;12.462;2024-02-26T03:40:40;100389.38;;;6.84;100.00
43757;BME280;73222;41.866;12.462;2024-02-26T03:43:05;100385.03;;;6.78;100.00
43757;BME280;73222;41.866;12.462;2024-02-26T03:45:32;100378.91;;;6.71;100.00
43757;BME280;73222;41.866;12.462;2024-02-26T03:47:58;100369.50;;;6.73;100.00
43757;BME280;73222;41.866;12.462;2024-02-26T03:50:24;100368.56;;;6.67;100.00
43757;BME280;73222;41.866;12.462;2024-02-26T03:52:49;100367.53;;;6.57;100.00
43757;BME280;73222;41.866;12.462;2024-02-26T03:55:15;100362.34;;;6.55;100.00
43757;BME280;73222;41.866;12.462;2024-02-26T03:57:40;100362.34;;;6.55;100.00
43757;BME280;73222;41.866;12.462;2024-02-26T04:00:06;100364.94;;;6.54;100.00
43757;BME280;73222;41.866;12.462;2024-02-26T04:02:32;100368.28;;;6.50;100.00
43757;BME280;73222;41.866;12.462;2024-02-26T04:04:57;100369.13;;;6.49;100.00
43757;BME280;73222;41.866;12.462;2024-02-26T04:07:24;100375.06;;;6.44;100.00
43757;BME280;73222;41.866;12.462;2024-02-26T04:09:49;100372.56;;;6.49;100.00
43757;BME280;73222;41.866;12.462;2024-02-26T04:12:15;100365.63;;;6.45;100.00
43757;BME280;73222;41.866;12.462;2024-02-26T04:14:40;100376.78;;;6.45;100.00
43757;BME280;73222;41.866;12.462;2024-02-26T04:17:05;100373.38;;;6.46;100.00
43757;BME280;73222;41.866;12.462;2024-02-26T04:19:31;100365.69;;;6.48;100.00
43757;BME280;73222;41.866;12.462;2024-02-26T04:21:56;100368.13;;;6.40;100.00
43757;BME280;73222;41.866;12.462;2024-02-26T04:24:21;100368.16;;;6.43;100.00
43757;BME280;73222;41.866;12.462;2024-02-26T04:26:47;100368.13;;;6.40;100.00
43757;BME280;73222;41.866;12.462;2024-02-26T04:29:14;100363.03;;;6.43;100.00
43757;BME280;73222;41.866;12.462;2024-02-26T04:31:40;100370.66;;;6.39;100.00
43757;BME280;73222;41.866;12.462;2024-02-26T04:34:07;100376.72;;;6.42;100.00
43757;BME280;73222;41.866;12.462;2024-02-26T04:36:33;100375.00;;;6.41;100.00
43757;BME280;73222;41.866;12.462;2024-02-26T04:38:58;100369.81;;;6.38;100.00
43757;BME280;73222;41.866;12.462;2024-02-26T04:41:23;100379.25;;;6.39;100.00
43757;BME280;73222;41.866;12.462;2024-02-26T04:43:49;100371.59;;;6.42;100.00
43757;BME280;73222;41.866;12.462;2024-02-26T04:46:14;100375.06;;;6.44;100.00
43757;BME280;73222;41.866;12.462;2024-02-26T04:48:39;100369.81;;;6.38;100.00
43757;BME280;73222;41.866;12.462;2024-02-26T04:51:06;100370.66;;;6.37;100.00
43757;BME280;73222;41.866;12.462;2024-02-26T04:53:32;100373.28;;;6.40;100.00
43757;BME280;73222;41.866;12.462;2024-02-26T04:55:57;100380.09;;;6.38;100.00
43757;BME280;73222;41.866;12.462;2024-02-26T04:58:23;100383.31;;;6.28;100.00
43757;BME280;73222;41.866;12.462;2024-02-26T05:00:48;100392.00;;;6.33;100.00
43757;BME280;73222;41.866;12.462;2024-02-26T05:03:13;100396.25;;;6.31;100.00
43757;BME280;73222;41.866;12.462;2024-02-26T05:05:41;100397.13;;;6.33;100.00
43757;BME280;73222;41.866;12.462;2024-02-26T05:08:06;100392.75;;;6.27;100.00
43757;BME280;73222;41.866;12.462;2024-02-26T05:10:33;100393.56;;;6.25;100.00
43757;BME280;73222;41.866;12.462;2024-02-26T05:12:58;100397.09;;;6.30;100.00
43757;BME280;73222;41.866;12.462;2024-02-26T05:15:24;100391.88;;;6.27;100.00
43757;BME280;73222;41.866;12.462;2024-02-26T05:17:49;100390.22;;;6.29;100.00
43757;BME280;73222;41.866;12.462;2024-02-26T05:20:14;100395.44;;;6.35;100.00
43757;BME280;73222;41.866;12.462;2024-02-26T05:22:40;100392.16;;;6.42;100.00
43757;BME280;73222;41.866;12.462;2024-02-26T05:25:05;100386.28;;;6.48;100.00
43757;BME280;73222;41.866;12.462;2024-02-26T05:27:31;100380.28;;;6.51;100.00
43757;BME280;73222;41.866;12.462;2024-02-26T05:29:56;100383.69;;;6.48;100.00
43757;BME280;73222;41.866;12.462;2024-02-26T05:32:22;100384.63;;;6.53;100.00
43757;BME280;73222;41.866;12.462;2024-02-26T05:34:47;100382.97;;;6.57;100.00
43757;BME280;73222;41.866;12.462;2024-02-26T05:37:12;100383.84;;;6.59;100.00
43757;BME280;73222;41.866;12.462;2024-02-26T05:39:38;100388.22;;;6.63;100.00
43757;BME280;73222;41.866;12.462;2024-02-26T05:42:04;100379.66;;;6.64;100.00
43757;BME280;73222;41.866;12.462;2024-02-26T05:44:29;100381.50;;;6.71;100.00
43757;BME280;73222;41.866;12.462;2024-02-26T05:46:55;100385.88;;;6.77;100.00
43757;BME280;73222;41.866;12.462;2024-02-26T05:49:21;100380.84;;;6.85;100.00
43757;BME280;73222;41.866;12.462;2024-02-26T05:51:47;100377.47;;;6.89;100.00
43757;BME280;73222;41.866;12.462;2024-02-26T05:54:12;100381.00;;;6.94;100.00
43757;BME280;73222;41.866;12.462;2024-02-26T05:56:38;100381.09;;;7.00;100.00
43757;BME280;73222;41.866;12.462;2024-02-26T05:59:03;100377.72;;;7.08;100.00
43757;BME280;73222;41.866;12.462;2024-02-26T06:01:29;100375.25;;;7.14;100.00
43757;BME280;73222;41.866;12.462;2024-02-26T06:03:54;100375.44;;;7.28;100.00
43757;BME280;73222;41.866;12.462;2024-02-26T06:06:19;100372.13;;;7.37;100.00
43757;BME280;73222;41.866;12.462;2024-02-26T06:08:47;100367.16;;;7.49;100.00
43757;BME280;73222;41.866;12.462;2024-02-26T06:11:13;100363.78;;;7.56;100.00
43757;BME280;73222;41.866;12.462;2024-02-26T06:13:38;100353.66;;;7.70;100.00
43757;BME280;73222;41.866;12.462;2024-02-26T06:16:04;100353.91;;;7.94;100.00
43757;BME280;73222;41.866;12.462;2024-02-26T06:18:30;100353.75;;;8.70;100.00
43757;BME280;73222;41.866;12.462;2024-02-26T06:20:55;100318.88;;;9.48;100.00
43757;BME280;73222;41.866;12.462;2024-02-26T06:23:21;100292.28;;;10.41;100.00
43757;BME280;73222;41.866;12.462;2024-02-26T06:25:46;100269.78;;;10.83;100.00
43757;BME280;73222;41.866;12.462;2024-02-26T06:28:13;100257.44;;;11.48;100.00
43757;BME280;73222;41.866;12.462;2024-02-26T06:30:38;100255.38;;;12.03;100.00
43757;BME280;73222;41.866;12.462;2024-02-26T06:33:04;100250.28;;;12.84;100.00
43757;BME280;73222;41.866;12.462;2024-02-26T06:35:30;100252.28;;;13.32;100.00
43757;BME280;73222;41.866;12.462;2024-02-26T06:37:55;100256.50;;;14.51;100.00
43757;BME280;73222;41.866;12.462;2024-02-26T06:40:21;100256.69;;;14.42;100.00
43757;BME280;73222;41.866;12.462;2024-02-26T06:42:46;100253.94;;;14.50;100.00
43757;BME280;73222;41.866;12.462;2024-02-26T06:45:11;100256.06;;;15.61;100.00
43757;BME280;73222;41.866;12.462;2024-02-26T06:47:37;100258.06;;;15.09;100.00
43757;BME280;73222;41.866;12.462;2024-02-26T06:50:02;100260.06;;;14.94;100.00
43757;BME280;73222;41.866;12.462;2024-02-26T06:52:28;100266.63;;;14.20;100.00
43757;BME280;73222;41.866;12.462;2024-02-26T06:54:53;100272.41;;;14.86;100.00
43757;BME280;73222;41.866;12.462;2024-02-26T06:57:20;100273.19;;;14.42;100.00
43757;BME280;73222;41.866;12.462;2024-02-26T06:59:45;100281.13;;;15.67;100.00
43757;BME280;73222;41.866;12.462;2024-02-26T07:02:15;100288.63;;;15.43;100.00
43757;BME280;73222;41.866;12.462;2024-02-26T07:04:41;100287.09;;;16.12;100.00
43757;BME280;73222;41.866;12.462;2024-02-26T07:07:07;100285.44;;;16.77;100.00
43757;BME280;73222;41.866;12.462;2024-02-26T07:09:33;100296.91;;;16.71;100.00
43757;BME280;73222;41.866;12.462;2024-02-26T07:11:58;100295.63;;;17.50;100.00
43757;BME280;73222;41.866;12.462;2024-02-26T07:14:24;100299.78;;;18.12;100.00
43757;BME280;73222;41.866;12.462;2024-02-26T07:16:52;100299.50;;;17.93;100.00
43757;BME280;73222;41.866;12.462;2024-02-26T07:19:17;100295.50;;;18.10;100.00
43757;BME280;73222;41.866;12.462;2024-02-26T07:21:43;100297.69;;;18.49;96.78
43757;BME280;73222;41.866;12.462;2024-02-26T07:24:08;100294.19;;;19.25;93.62
43757;BME280;73222;41.866;12.462;2024-02-26T07:26:34;100299.00;;;18.63;92.70
43757;BME280;73222;41.866;12.462;2024-02-26T07:29:03;100291.69;;;17.35;100.00
43757;BME280;73222;41.866;12.462;2024-02-26T07:31:29;100292.81;;;17.56;100.00
43757;BME280;73222;41.866;12.462;2024-02-26T07:33:54;100288.31;;;17.31;100.00
43757;BME280;73222;41.866;12.462;2024-02-26T07:36:23;100293.00;;;17.20;100.00
43757;BME280;73222;41.866;12.462;2024-02-26T07:38:48;100289.03;;;17.36;100.00
43757;BME280;73222;41.866;12.462;2024-02-26T07:41:14;100294.88;;;16.50;100.00
43757;BME280;73222;41.866;12.462;2024-02-26T07:43:39;100290.38;;;16.20;100.00
43757;BME280;73222;41.866;12.462;2024-02-26T07:46:06;100290.66;;;15.70;100.00
43757;BME280;73222;41.866;12.462;2024-02-26T07:48:32;100285.41;;;16.11;100.00
43757;BME280;73222;41.866;12.462;2024-02-26T07:50:59;100291.91;;;16.62;100.00
43757;BME280;73222;41.866;12.462;2024-02-26T07:53:25;100283.50;;;16.51;100.00
43757;BME280;73222;41.866;12.462;2024-02-26T07:55:50;100293.09;;;16.50;100.00
43757;BME280;73222;41.866;12.462;2024-02-26T07:58:16;100285.81;;;16.63;100.00
43757;BME280;73222;41.866;12.462;2024-02-26T08:00:44;100290.44;;;16.17;100.00
43757;BME280;73222;41.866;12.462;2024-02-26T08:03:11;100289.97;;;15.61;100.00
43757;BME280;73222;41.866;12.462;2024-02-26T08:05:38;100288.31;;;15.57;100.00
43757;BME280;73222;41.866;12.462;2024-02-26T08:08:06;100286.00;;;15.43;100.00
43757;BME280;73222;41.866;12.462;2024-02-26T08:10:31;100292.03;;;15.45;100.00
43757;BME280;73222;41.866;12.462;2024-02-26T08:12:57;100294.19;;;16.43;100.00
43757;BME280;73222;41.866;12.462;2024-02-26T08:15:32;100289.38;;;15.88;100.00
43757;BME280;73222;41.866;12.462;2024-02-26T08:17:59;100286.25;;;16.46;100.00
43757;BME280;73222;41.866;12.462;2024-02-26T08:20:34;100291.06;;;16.61;100.00
43757;BME280;73222;41.866;12.462;2024-02-26T08:23:00;100289.22;;;16.67;100.00
43757;BME280;73222;41.866;12.462;2024-02-26T08:25:25;100280.59;;;15.92;100.00
43757;BME280;73222;41.866;12.462;2024-02-26T08:27:51;100271.38;;;16.13;100.00
43757;BME280;73222;41.866;12.462;2024-02-26T08:30:17;100277.53;;;15.33;100.00
43757;BME280;73222;41.866;12.462;2024-02-26T08:32:43;100274.38;;;14.75;100.00
43757;BME280;73222;41.866;12.462;2024-02-26T08:35:09;100274.72;;;14.54;100.00
43757;BME280;73222;41.866;12.462;2024-02-26T08:37:34;100274.25;;;14.31;100.00
43757;BME280;73222;41.866;12.462;2024-02-26T08:40:00;100274.06;;;14.41;100.00
43757;BME280;73222;41.866;12.462;2024-02-26T08:42:25;100266.19;;;14.45;100.00
43757;BME280;73222;41.866;12.462;2024-02-26T08:44:50;100268.22;;;14.27;100.00
43757;BME280;73222;41.866;12.462;2024-02-26T08:47:16;100268.81;;;14.43;100.00
43757;BME280;73222;41.866;12.462;2024-02-26T08:49:45;100264.19;;;14.09;100.00
43757;BME280;73222;41.866;12.462;2024-02-26T08:52:10;100260.69;;;14.11;100.00
43757;BME280;73222;41.866;12.462;2024-02-26T08:54:36;100259.53;;;14.29;100.00
43757;BME280;73222;41.866;12.462;2024-02-26T08:57:01;100265.00;;;14.12;100.00
43757;BME280;73222;41.866;12.462;2024-02-26T08:59:28;100266.38;;;14.32;100.00
43757;BME280;73222;41.866;12.462;2024-02-26T09:01:53;100268.69;;;14.51;100.00
43757;BME280;73222;41.866;12.462;2024-02-26T09:04:18;100272.94;;;14.55;100.00
43757;BME280;73222;41.866;12.462;2024-02-26T09:06:44;100265.44;;;14.38;100.00
43757;BME280;73222;41.866;12.462;2024-02-26T09:09:09;100265.44;;;14.38;100.00
43757;BME280;73222;41.866;12.462;2024-02-26T09:11:34;100268.91;;;14.38;100.00
43757;BME280;73222;41.866;12.462;2024-02-26T09:14:00;100266.69;;;14.15;100.00
43757;BME280;73222;41.866;12.462;2024-02-26T09:16:25;100264.19;;;14.10;100.00
43757;BME280;73222;41.866;12.462;2024-02-26T09:18:50;100271.91;;;14.13;100.00
43757;BME280;73222;41.866;12.462;2024-02-26T09:21:16;100277.22;;;14.07;100.00
43757;BME280;73222;41.866;12.462;2024-02-26T09:23:48;100272.06;;;14.04;100.00
43757;BME280;73222;41.866;12.462;2024-02-26T09:26:13;100273.97;;;13.93;100.00
43757;BME280;73222;41.866;12.462;2024-02-26T09:28:39;100267.69;;;14.08;100.00
43757;BME280;73222;41.866;12.462;2024-02-26T09:55:37;100253.69;;;14.15;100.00
43757;BME280;73222;41.866;12.462;2024-02-26T09:58:05;100244.63;;;14.85;100.00
43757;BME280;73222;41.866;12.462;2024-02-26T10:00:31;100253.88;;;15.00;100.00
43757;BME280;73222;41.866;12.462;2024-02-26T10:03:09;100246.41;;;14.83;100.00
43757;BME280;73222;41.866;12.462;2024-02-26T10:05:39;100249.00;;;14.83;100.00
43757;BME280;73222;41.866;12.462;2024-02-26T10:08:06;100235.59;;;15.02;100.00
43757;BME280;73222;41.866;12.462;2024-02-26T10:10:33;100240.53;;;15.16;100.00
43757;BME280;73222;41.866;12.462;2024-02-26T10:12:59;100234.09;;;14.91;100.00
43757;BME280;73222;41.866;12.462;2024-02-26T10:15:26;100234.59;;;14.63;100.00
43757;BME280;73222;41.866;12.462;2024-02-26T10:17:52;100235.66;;;14.51;100.00
43757;BME280;73222;41.866;12.462;2024-02-26T10:20:18;100245.56;;;14.32;100.00
43757;BME280;73222;41.866;12.462;2024-02-26T10:22:46;100241.34;;;14.25;100.00
43757;BME280;73222;41.866;12.462;2024-02-26T10:25:12;100236.34;;;14.14;100.00
43757;BME280;73222;41.866;12.462;2024-02-26T10:27:37;100239.16;;;14.00;100.00
43757;BME280;73222;41.866;12.462;2024-02-26T10:30:22;100232.09;;;14.08;100.00
43757;BME280;73222;41.866;12.462;2024-02-26T10:32:51;100237.09;;;14.21;100.00
43757;BME280;73222;41.866;12.462;2024-02-26T10:35:17;100244.09;;;14.15;100.00
43757;BME280;73222;41.866;12.462;2024-02-26T10:37:46;100233.91;;;14.03;100.00
43757;BME280;73222;41.866;12.462;2024-02-26T10:40:16;100244.50;;;13.92;100.00
43757;BME280;73222;41.866;12.462;2024-02-26T10:42:42;100237.44;;;13.99;100.00
43757;BME280;73222;41.866;12.462;2024-02-26T10:45:09;100235.06;;;13.86;100.00
43757;BME280;73222;41.866;12.462;2024-02-26T10:47:35;100241.22;;;13.81;100.00
43757;BME280;73222;41.866;12.462;2024-02-26T10:50:02;100230.25;;;13.58;100.00
43757;BME280;73222;41.866;12.462;2024-02-26T10:52:33;100230.19;;;13.63;100.00
43757;BME280;73222;41.866;12.462;2024-02-26T10:55:03;100242.63;;;14.02;100.00
43757;BME280;73222;41.866;12.462;2024-02-26T10:57:32;100226.63;;;14.24;100.00
43757;BME280;73222;41.866;12.462;2024-02-26T11:00:00;100222.69;;;14.50;100.00
43757;BME280;73222;41.866;12.462;2024-02-26T11:02:26;100214.09;;;14.45;100.00
43757;BME280;73222;41.866;12.462;2024-02-26T11:04:53;100212.59;;;14.31;100.00
43757;BME280;73222;41.866;12.462;2024-02-26T11:07:19;100209.25;;;14.26;100.00
43757;BME280;73222;41.866;12.462;2024-02-26T11:09:46;100203.44;;;14.08;100.00
43757;BME280;73222;41.866;12.462;2024-02-26T11:12:17;100203.69;;;13.94;100.00
43757;BME280;73222;41.866;12.462;2024-02-26T11:14:46;100203.34;;;14.16;100.00
43757;BME280;73222;41.866;12.462;2024-02-26T11:17:12;100185.59;;;14.37;100.00
43757;BME280;73222;41.866;12.462;2024-02-26T11:19:39;100192.00;;;14.19;100.00
43757;BME280;73222;41.866;12.462;2024-02-26T11:22:06;100181.63;;;14.15;100.00
43757;BME280;73222;41.866;12.462;2024-02-26T11:24:32;100181.34;;;14.33;100.00
43757;BME280;73222;41.866;12.462;2024-02-26T11:27:01;100186.75;;;14.22;100.00
43757;BME280;73222;41.866;12.462;2024-02-26T11:29:33;100181.47;;;14.25;100.00
43757;BME280;73222;41.866;12.462;2024-02-26T11:32:00;100176.13;;;14.34;100.00
43757;BME280;73222;41.866;12.462;2024-02-26T11:34:27;100171.88;;;14.73;100.00
43757;BME280;73222;41.866;12.462;2024-02-26T11:36:53;100162.34;;;14.73;100.00
43757;BME280;73222;41.866;12.462;2024-02-26T11:39:19;100159.66;;;14.76;100.00
43757;BME280;73222;41.866;12.462;2024-02-26T11:41:44;100164.94;;;14.72;100.00
43757;BME280;73222;41.866;12.462;2024-02-26T11:44:10;100163.75;;;14.90;100.00
43757;BME280;73222;41.866;12.462;2024-02-26T11:46:42;100152.31;;;14.95;100.00
43757;BME280;73222;41.866;12.462;2024-02-26T11:51:56;100163.22;;;14.72;94.51
43757;BME280;73222;41.866;12.462;2024-02-26T11:54:47;100153.13;;;14.55;93.15
43757;BME280;73222;41.866;12.462;2024-02-26T11:57:28;100153.25;;;14.49;97.29
43757;BME280;73222;41.866;12.462;2024-02-26T11:59:55;100143.19;;;14.30;100.00
43757;BME280;73222;41.866;12.462;2024-02-26T12:05:12;100138.72;;;14.37;100.00
43757;BME280;73222;41.866;12.462;2024-02-26T12:08:08;100139.91;;;14.64;100.00
43757;BME280;73222;41.866;12.462;2024-02-26T12:10:36;100137.06;;;14.78;100.00
43757;BME280;73222;41.866;12.462;2024-02-26T12:13:13;100138.38;;;14.54;100.00
43757;BME280;73222;41.866;12.462;2024-02-26T12:18:17;100139.09;;;14.62;99.75
43757;BME280;73222;41.866;12.462;2024-02-26T12:20:43;100136.44;;;14.65;100.00
43757;BME280;73222;41.866;12.462;2024-02-26T12:23:14;100127.84;;;14.60;100.00
43757;BME280;73222;41.866;12.462;2024-02-26T12:25:40;100130.84;;;14.41;100.00
43757;BME280;73222;41.866;12.462;2024-02-26T12:28:06;100118.88;;;14.31;100.00
43757;BME280;73222;41.866;12.462;2024-02-26T12:30:32;100122.25;;;14.36;100.00
43757;BME280;73222;41.866;12.462;2024-02-26T12:32:58;100128.47;;;14.29;100.00
43757;BME280;73222;41.866;12.462;2024-02-26T12:35:25;100134.75;;;14.19;100.00
43757;BME280;73222;41.866;12.462;2024-02-26T12:37:52;100128.78;;;14.12;100.00
43757;BME280;73222;41.866;12.462;2024-02-26T12:40:19;100115.84;;;14.07;100.00
43757;BME280;73222;41.866;12.462;2024-02-26T12:42:45;100112.03;;;14.27;100.00
43757;BME280;73222;41.866;12.462;2024-02-26T12:45:12;100105.16;;;14.23;100.00
43757;BME280;73222;41.866;12.462;2024-02-26T12:47:38;100099.13;;;14.19;100.00
43757;BME280;73222;41.866;12.462;2024-02-26T12:50:05;100101.00;;;14.14;100.00
43757;BME280;73222;41.866;12.462;2024-02-26T12:52:34;100098.13;;;14.28;100.00
43757;BME280;73222;41.866;12.462;2024-02-26T12:55:02;100102.25;;;14.38;100.00
43757;BME280;73222;41.866;12.462;2024-02-26T12:57:34;100089.19;;;14.41;100.00
43757;BME280;73222;41.866;12.462;2024-02-26T13:00:01;100102.19;;;14.41;100.00
43757;BME280;73222;41.866;12.462;2024-02-26T13:02:27;100091.09;;;14.33;100.00
43757;BME280;73222;41.866;12.462;2024-02-26T13:04:54;100087.50;;;14.37;100.00